Vazante, Brazil
Current Conditions -  °F | °C
As of 4:00 PM on Sunday 23 Nov 2014 (Local Time) from SBUL Reporting Station
Thunderstorm Thunderstorm  
Wind Chill: 70°   Ceiling: Unl
Heat Index: 70°   Visibility: 6mi
Dew Point: 66°   Wind: 10mph
Humidity: 88%   Direction: 10°N
Pressure: 29.97"   Gusts: NA
Location:  17.99°S, 46.91°W
Report Text: SBUL 231800Z 01009KT 9999 -TSRA SCT007 FEW050CB 21/19 Q1015
Loading
Personal Weather Stations






























Interactive Weather Map New forecast layout! Learn more

10-Day Weather Forecast

Advertisements
Track Severe Weather on mobile